Time;durP1;ratioP1;P1;durP2;ratioP2;P2;SDS_P1;SDS_P2;PMS_P1;PMS_P2;Temp;Humidity;BMP_temperature;BMP_pressure;BME280_temperature;BME280_humidity;BME280_pressure;Samples;Min_cycle;Max_cycle;Signal;HPM_P1;HPM_P2
2022/04/01 00:02:17;;;;;;;18.30;15.57;;;2.20;99.90;;;;;;7241052;32;20315;-58
2022/04/01 00:06:19;;;;;;;19.05;15.23;;;2.10;99.90;;;;;;7239418;32;20182;-59
2022/04/01 00:10:21;;;;;;;16.58;13.95;;;2.10;99.90;;;;;;7243975;32;20583;-59
2022/04/01 00:14:23;;;;;;;17.70;13.52;;;2.10;99.90;;;;;;7240689;32;20101;-58
2022/04/01 00:18:25;;;;;;;15.57;12.48;;;2.10;99.90;;;;;;7238153;32;20162;-61
2022/04/01 00:22:27;;;;;;;18.83;13.23;;;2.00;99.90;;;;;;7240067;32;20497;-59
2022/04/01 00:26:28;;;;;;;16.23;12.70;;;2.00;99.90;;;;;;7241799;32;20160;-59
2022/04/01 00:30:30;;;;;;;16.73;13.10;;;2.00;99.90;;;;;;7237778;32;20226;-62
2022/04/01 00:34:34;;;;;;;15.52;12.65;;;2.00;99.90;;;;;;7241247;32;20653;-57
2022/04/01 00:38:36;;;;;;;16.50;13.23;;;2.00;99.90;;;;;;7243033;32;20159;-57
2022/04/01 00:42:38;;;;;;;14.07;11.27;;;2.00;99.90;;;;;;7239916;32;20207;-57
2022/04/01 00:46:42;;;;;;;15.15;11.88;;;2.00;99.90;;;;;;7240364;32;20186;-57
2022/04/01 00:50:44;;;;;;;15.60;11.18;;;1.90;99.90;;;;;;7240479;32;20105;-57
2022/04/01 00:54:46;;;;;;;13.62;11.45;;;1.90;99.90;;;;;;7245535;32;20478;-57
2022/04/01 00:58:48;;;;;;;13.35;10.95;;;1.90;99.90;;;;;;7226823;32;20460;-57
2022/04/01 01:02:49;;;;;;;14.38;11.32;;;1.90;99.90;;;;;;7227785;32;20136;-58
2022/04/01 01:06:55;;;;;;;11.23;9.65;;;1.90;99.90;;;;;;7238960;32;20247;-58
2022/04/01 01:10:57;;;;;;;13.40;10.32;;;1.90;99.90;;;;;;7236553;32;20191;-58
2022/04/01 01:15:10;;;;;;;11.93;10.35;;;2.00;99.90;;;;;;7243199;32;20122;-57
2022/04/01 01:19:15;;;;;;;12.93;10.65;;;1.90;99.90;;;;;;7242602;32;20224;-59
2022/04/01 01:23:17;;;;;;;15.10;10.32;;;1.80;99.90;;;;;;7242428;32;20104;-58
2022/04/01 01:27:20;;;;;;;11.30;10.10;;;1.80;99.90;;;;;;7241912;32;20112;-57
2022/04/01 01:31:21;;;;;;;12.07;9.75;;;1.80;99.90;;;;;;7239747;32;20204;-58
2022/04/01 01:35:23;;;;;;;11.68;9.35;;;1.80;99.90;;;;;;7237328;32;20458;-58
2022/04/01 01:39:25;;;;;;;9.65;8.45;;;1.80;99.90;;;;;;7221788;32;20156;-59
2022/04/01 01:43:27;;;;;;;9.50;8.43;;;1.80;99.90;;;;;;7237831;32;20607;-58
2022/04/01 01:47:28;;;;;;;12.15;8.93;;;1.80;99.90;;;;;;7225790;32;20100;-57
2022/04/01 01:55:51;;;;;;;10.38;8.65;;;1.90;99.90;;;;;;7244337;32;20209;-57
2022/04/01 01:59:53;;;;;;;13.23;9.73;;;1.80;99.90;;;;;;7241800;32;20109;-57
2022/04/01 02:03:56;;;;;;;14.18;10.82;;;1.80;99.90;;;;;;7242957;32;20104;-59
2022/04/01 02:08:00;;;;;;;13.00;11.18;;;1.80;99.90;;;;;;7240787;32;20127;-58
2022/04/01 02:12:03;;;;;;;13.80;10.70;;;1.80;99.90;;;;;;7241335;32;20200;-57
2022/04/01 02:16:05;;;;;;;12.77;10.55;;;1.70;99.90;;;;;;7242931;32;20170;-58
2022/04/01 02:20:10;;;;;;;12.73;9.77;;;1.70;99.90;;;;;;7238716;32;20210;-58
2022/04/01 02:24:13;;;;;;;11.57;9.02;;;1.60;99.90;;;;;;7239202;32;20139;-58
2022/04/01 02:28:15;;;;;;;11.07;9.30;;;1.60;99.90;;;;;;7232151;32;20749;-58
2022/04/01 02:32:17;;;;;;;10.93;8.65;;;1.60;99.90;;;;;;7237637;32;20163;-58
2022/04/01 02:36:19;;;;;;;12.25;9.82;;;1.60;99.90;;;;;;7239216;32;20105;-58
2022/04/01 02:40:21;;;;;;;15.57;10.00;;;1.60;99.90;;;;;;7222887;32;20101;-56
2022/04/01 02:44:22;;;;;;;16.50;11.68;;;1.60;99.90;;;;;;7239005;32;20109;-57
2022/04/01 02:48:24;;;;;;;15.00;10.57;;;1.50;99.90;;;;;;7235548;32;20278;-58
2022/04/01 02:52:27;;;;;;;13.30;10.57;;;1.50;99.90;;;;;;7241406;32;20192;-58
2022/04/01 02:56:29;;;;;;;11.40;9.50;;;1.50;99.90;;;;;;7244473;32;20279;-57
2022/04/01 03:00:31;;;;;;;11.50;8.57;;;1.50;99.90;;;;;;7244708;32;20725;-58
2022/04/01 03:04:33;;;;;;;12.95;10.35;;;1.50;99.90;;;;;;7242262;32;20596;-58
2022/04/01 03:08:35;;;;;;;12.10;10.05;;;1.50;99.90;;;;;;7244930;32;20205;-58
2022/04/01 03:12:37;;;;;;;12.93;8.68;;;1.50;99.90;;;;;;7246134;32;20119;-59
2022/04/01 03:16:39;;;;;;;13.45;8.95;;;1.50;99.90;;;;;;7231949;32;20128;-58
2022/04/01 03:20:41;;;;;;;11.25;8.18;;;1.50;99.90;;;;;;7230930;32;20824;-58
2022/04/01 03:24:43;;;;;;;11.30;7.97;;;1.40;99.90;;;;;;7244713;32;20256;-60
2022/04/01 03:28:46;;;;;;;9.32;6.85;;;1.40;99.90;;;;;;7243930;32;20327;-58
2022/04/01 03:32:48;;;;;;;9.30;7.70;;;1.40;99.90;;;;;;7245740;32;20501;-59
2022/04/01 03:36:49;;;;;;;10.27;7.43;;;1.40;99.90;;;;;;7245838;32;20192;-58
2022/04/01 03:40:51;;;;;;;10.05;7.60;;;1.30;99.90;;;;;;7244116;32;20282;-58
2022/04/01 03:44:53;;;;;;;10.48;7.18;;;1.40;99.90;;;;;;7241135;32;20135;-58
2022/04/01 03:49:04;;;;;;;8.73;6.55;;;1.40;99.90;;;;;;7243931;32;20097;-58
2022/04/01 03:53:08;;;;;;;8.70;6.07;;;1.40;99.90;;;;;;7243517;32;20108;-58
2022/04/01 03:57:12;;;;;;;8.82;6.50;;;1.30;99.90;;;;;;7242566;32;20108;-58
2022/04/01 04:01:13;;;;;;;7.25;5.95;;;1.30;99.90;;;;;;7239735;32;20139;-58
2022/04/01 04:05:19;;;;;;;9.35;5.65;;;1.30;99.90;;;;;;7239958;32;20100;-56
2022/04/01 04:09:22;;;;;;;8.10;6.25;;;1.30;99.90;;;;;;7243323;32;20314;-58
2022/04/01 04:13:27;;;;;;;7.85;5.75;;;1.20;99.90;;;;;;7241630;32;20123;-58
2022/04/01 04:17:37;;;;;;;8.20;5.80;;;1.30;99.90;;;;;;7239942;32;20119;-58
2022/04/01 04:21:54;;;;;;;7.43;5.75;;;1.30;99.90;;;;;;7242032;32;20252;-58
2022/04/01 04:26:11;;;;;;;7.07;5.45;;;1.30;99.90;;;;;;7241611;32;20181;-57
2022/04/01 04:30:13;;;;;;;;;;;1.30;99.90;;;;;;7239950;32;20708;-57
2022/04/01 04:34:20;;;;;;;9.32;5.87;;;1.30;99.90;;;;;;7225730;32;20007;-58
2022/04/01 04:38:23;;;;;;;7.97;6.15;;;1.30;99.90;;;;;;7237901;32;20183;-58
2022/04/01 04:42:27;;;;;;;8.90;6.87;;;1.20;99.90;;;;;;7235547;32;20108;-58
2022/04/01 04:46:32;;;;;;;8.60;5.62;;;1.20;99.90;;;;;;7240843;32;20104;-57
2022/04/01 04:50:34;;;;;;;6.70;5.05;;;1.20;99.90;;;;;;7244938;32;20131;-59
2022/04/01 04:54:40;;;;;;;6.90;5.55;;;1.20;99.90;;;;;;7242655;32;20159;-58
2022/04/01 04:58:43;;;;;;;6.37;4.90;;;1.30;99.90;;;;;;7243601;32;20232;-57
2022/04/01 05:03:06;;;;;;;7.62;5.55;;;1.20;99.90;;;;;;7246054;32;20215;-57
2022/04/01 05:07:36;;;;;;;5.87;4.10;;;1.30;99.90;;;;;;7241162;32;20104;-57
2022/04/01 05:11:47;;;;;;;4.75;4.22;;;1.30;99.90;;;;;;7237039;32;20108;-58
2022/04/01 05:15:56;;;;;;;5.15;3.90;;;1.10;99.90;;;;;;7239253;32;20695;-58
2022/04/01 05:20:00;;;;;;;9.68;4.50;;;1.20;99.90;;;;;;7240696;32;20101;-59
2022/04/01 05:24:05;;;;;;;6.10;4.57;;;1.20;99.90;;;;;;7238953;32;20512;-59
2022/04/01 05:28:20;;;;;;;8.32;5.35;;;1.20;99.90;;;;;;7239502;32;20304;-60
2022/04/01 05:32:28;;;;;;;6.55;4.78;;;1.20;99.90;;;;;;7237255;32;20642;-59
2022/04/01 05:36:30;;;;;;;6.12;4.65;;;1.20;99.90;;;;;;7236247;32;20210;-60
2022/04/01 05:40:32;;;;;;;7.72;5.00;;;1.10;99.90;;;;;;7235585;32;20215;-59
2022/04/01 05:44:35;;;;;;;6.75;4.47;;;1.10;99.90;;;;;;7240324;32;20609;-59
2022/04/01 05:48:40;;;;;;;6.18;4.30;;;1.10;99.90;;;;;;7239978;32;20096;-58
2022/04/01 05:52:42;;;;;;;6.43;4.90;;;1.20;99.90;;;;;;7240796;32;20201;-61
2022/04/01 05:56:46;;;;;;;6.40;4.68;;;1.20;99.90;;;;;;7242517;32;20228;-59
2022/04/01 06:01:11;;;;;;;6.00;4.78;;;1.10;99.90;;;;;;7241769;32;20108;-60
2022/04/01 06:05:17;;;;;;;7.12;4.70;;;1.10;99.90;;;;;;7234213;32;20247;-58
2022/04/01 06:09:44;;;;;;;6.28;4.82;;;1.10;99.90;;;;;;7247296;32;20142;-60
2022/04/01 06:14:02;;;;;;;6.10;4.37;;;1.20;99.90;;;;;;7237174;32;20736;-58
2022/04/01 06:18:30;;;;;;;5.93;4.62;;;1.20;99.90;;;;;;7228760;32;20293;-59
2022/04/01 06:22:36;;;;;;;6.53;4.07;;;1.20;99.90;;;;;;7237543;32;20915;-58
2022/04/01 06:26:47;;;;;;;6.27;4.30;;;1.10;99.90;;;;;;7236099;32;20131;-59
2022/04/01 06:30:50;;;;;;;5.85;4.45;;;1.20;99.90;;;;;;7242228;32;20127;-58
2022/04/01 06:35:04;;;;;;;5.78;4.53;;;1.10;99.90;;;;;;7244490;32;20275;-59
2022/04/01 06:39:06;;;;;;;7.12;4.20;;;1.10;99.90;;;;;;7238150;32;20187;-60
2022/04/01 06:43:08;;;;;;;6.43;3.78;;;1.20;99.90;;;;;;7246596;32;20101;-59
2022/04/01 06:47:10;;;;;;;5.40;4.20;;;1.10;99.90;;;;;;7232113;32;20125;-60
2022/04/01 06:51:14;;;;;;;8.80;5.35;;;1.00;99.90;;;;;;7246117;32;20187;-60
2022/04/01 06:55:16;;;;;;;6.45;4.12;;;1.10;99.90;;;;;;7245121;32;20323;-59
2022/04/01 06:59:18;;;;;;;6.32;3.90;;;1.20;99.90;;;;;;7241050;32;20175;-58
2022/04/01 07:03:21;;;;;;;5.78;3.70;;;1.10;99.90;;;;;;7238809;32;20580;-58
2022/04/01 07:07:23;;;;;;;5.12;3.58;;;1.20;99.90;;;;;;7229030;32;20477;-59
2022/04/01 07:11:25;;;;;;;5.05;3.95;;;1.20;99.90;;;;;;7242883;32;20448;-58
2022/04/01 07:15:26;;;;;;;6.53;3.60;;;1.10;99.90;;;;;;7243667;32;20192;-58
2022/04/01 07:19:28;;;;;;;5.20;3.70;;;1.20;99.90;;;;;;7241891;32;20190;-59
2022/04/01 07:23:32;;;;;;;7.07;3.87;;;1.20;99.90;;;;;;7241181;32;20874;-58
2022/04/01 07:27:34;;;;;;;8.20;5.07;;;1.20;99.90;;;;;;7241569;32;20129;-59
2022/04/01 07:36:14;;;;;;;4.10;3.33;;;1.20;99.90;;;;;;7240857;32;20975;-59
2022/04/01 07:40:16;;;;;;;5.75;3.53;;;1.20;99.90;;;;;;7237471;32;20209;-59
2022/04/01 07:44:18;;;;;;;4.97;3.12;;;1.20;99.90;;;;;;7237672;32;20576;-59
2022/04/01 07:48:21;;;;;;;5.57;3.45;;;1.20;99.90;;;;;;7226588;32;20108;-60
2022/04/01 07:52:23;;;;;;;4.75;3.35;;;1.10;99.90;;;;;;7239947;32;20230;-63
2022/04/01 07:56:30;;;;;;;4.60;3.33;;;1.10;99.90;;;;;;7215015;32;20508;-59
2022/04/01 08:00:32;;;;;;;6.43;4.07;;;1.20;99.90;;;;;;7226795;32;20354;-60
2022/04/01 08:04:34;;;;;;;5.60;3.70;;;1.10;99.90;;;;;;7238668;32;20250;-60
2022/04/01 08:08:40;;;;;;;7.15;3.97;;;1.10;99.90;;;;;;7236095;32;20113;-59
2022/04/01 08:12:43;;;;;;;6.07;3.47;;;1.20;99.90;;;;;;7240558;32;20128;-59
2022/04/01 08:16:46;;;;;;;5.15;3.65;;;1.10;99.90;;;;;;7239711;32;20150;-59
2022/04/01 08:20:48;;;;;;;8.70;4.57;;;1.10;99.90;;;;;;7237561;32;20120;-59
2022/04/01 08:24:50;;;;;;;6.50;3.90;;;1.00;99.90;;;;;;7240535;32;20528;-59
2022/04/01 08:28:52;;;;;;;7.55;3.40;;;1.10;99.90;;;;;;7244181;32;20143;-59
2022/04/01 08:32:54;;;;;;;4.43;3.58;;;1.00;99.90;;;;;;7241565;32;20100;-60
2022/04/01 08:36:56;;;;;;;3.75;3.15;;;1.10;99.90;;;;;;7243929;32;20100;-60
2022/04/01 08:40:58;;;;;;;4.97;3.37;;;1.10;99.90;;;;;;7245241;32;20208;-59
2022/04/01 08:45:02;;;;;;;4.68;3.70;;;1.20;99.90;;;;;;7227864;32;20760;-59
2022/04/01 08:49:06;;;;;;;5.78;3.22;;;1.10;99.90;;;;;;7240334;32;20516;-60
2022/04/01 08:53:08;;;;;;;5.37;3.35;;;1.20;99.90;;;;;;7237609;32;20324;-59
2022/04/01 08:57:10;;;;;;;4.95;3.17;;;1.30;99.90;;;;;;7239750;32;20490;-59
2022/04/01 09:01:13;;;;;;;5.90;3.85;;;1.30;99.90;;;;;;7227817;32;20135;-60
2022/04/01 09:05:15;;;;;;;5.12;3.03;;;1.40;99.90;;;;;;7232371;32;20100;-59
2022/04/01 09:09:28;;;;;;;5.47;3.08;;;1.30;99.90;;;;;;7235267;32;20124;-60
2022/04/01 09:13:50;;;;;;;4.85;3.00;;;1.30;99.90;;;;;;7234092;32;20123;-61
2022/04/01 09:17:52;;;;;;;5.37;3.00;;;1.30;99.90;;;;;;7234741;32;20207;-59
2022/04/01 09:21:54;;;;;;;3.65;2.85;;;1.30;99.90;;;;;;7236607;32;20750;-60
2022/04/01 09:25:55;;;;;;;5.07;3.35;;;1.30;99.90;;;;;;7237673;32;20104;-59
2022/04/01 09:29:58;;;;;;;4.43;3.40;;;1.30;99.90;;;;;;7242275;32;20105;-60
2022/04/01 09:34:01;;;;;;;4.97;3.22;;;1.20;99.90;;;;;;7238809;32;20105;-59
2022/04/01 09:38:07;;;;;;;3.65;3.10;;;1.30;99.90;;;;;;7235834;32;20179;-59
2022/04/01 09:42:10;;;;;;;5.95;3.65;;;1.50;99.90;;;;;;7238121;32;20844;-60
2022/04/01 09:46:23;;;;;;;5.93;3.08;;;1.50;99.90;;;;;;7238590;32;20724;-59
2022/04/01 09:50:31;;;;;;;5.25;3.67;;;1.40;99.90;;;;;;7234878;32;20369;-60
2022/04/01 09:54:33;;;;;;;4.53;3.83;;;1.40;99.90;;;;;;7249505;32;20192;-60
2022/04/01 09:58:35;;;;;;;5.32;4.12;;;1.40;99.90;;;;;;7234227;32;20100;-60
2022/04/01 10:02:38;;;;;;;5.57;4.12;;;1.50;99.90;;;;;;7236021;32;20105;-62
2022/04/01 10:06:41;;;;;;;6.15;4.00;;;1.60;99.90;;;;;;7239758;32;20105;-61
2022/04/01 10:10:43;;;;;;;4.57;3.83;;;1.60;99.90;;;;;;7241286;32;20251;-59
2022/04/01 10:14:46;;;;;;;4.55;3.30;;;1.60;99.90;;;;;;7239631;32;20111;-60
2022/04/01 10:19:04;;;;;;;4.53;3.28;;;1.60;99.90;;;;;;7239141;32;20237;-59
2022/04/01 10:23:11;;;;;;;6.70;3.78;;;1.60;99.90;;;;;;7240939;32;20109;-59
2022/04/01 10:27:41;;;;;;;5.53;3.60;;;1.60;99.90;;;;;;7240710;32;20113;-59
2022/04/01 10:32:12;;;;;;;4.70;2.92;;;1.50;99.90;;;;;;7238943;32;20318;-60
2022/04/01 10:36:26;;;;;;;6.82;3.62;;;1.50;99.90;;;;;;7234639;32;20200;-59
2022/04/01 10:40:40;;;;;;;4.93;3.30;;;1.50;99.90;;;;;;7238576;32;20124;-60
2022/04/01 10:44:46;;;;;;;4.90;3.37;;;1.60;99.90;;;;;;7237818;32;20445;-59
2022/04/01 10:53:45;;;;;;;5.12;3.78;;;1.60;99.90;;;;;;7233787;32;20131;-59
2022/04/01 10:57:50;;;;;;;4.90;3.47;;;1.50;99.90;;;;;;7239634;32;20568;-59
2022/04/01 11:01:51;;;;;;;5.47;3.45;;;1.60;99.90;;;;;;7237590;32;20154;-59
2022/04/01 11:06:23;;;;;;;4.95;3.33;;;1.60;99.90;;;;;;7239340;32;20220;-60
2022/04/01 11:10:25;;;;;;;6.18;3.80;;;1.60;99.90;;;;;;7236833;32;20101;-60
2022/04/01 11:14:27;;;;;;;5.50;4.00;;;1.70;99.90;;;;;;7234423;32;20112;-60
2022/04/01 11:18:29;;;;;;;5.15;3.17;;;1.70;99.90;;;;;;7245270;32;20496;-59
2022/04/01 11:22:44;;;;;;;5.43;3.10;;;1.70;99.90;;;;;;7247313;32;20188;-60
2022/04/01 11:26:45;;;;;;;3.90;3.15;;;1.80;99.90;;;;;;7246945;32;20836;-60
2022/04/01 11:30:50;;;;;;;5.05;3.47;;;1.80;99.90;;;;;;7246658;32;20112;-58
2022/04/01 11:34:55;;;;;;;7.43;3.90;;;1.80;99.90;;;;;;7248020;32;20183;-60
2022/04/01 11:38:58;;;;;;;5.55;3.97;;;1.80;99.90;;;;;;7246892;32;20100;-60
2022/04/01 11:43:09;;;;;;;7.55;3.67;;;1.70;99.90;;;;;;7241455;32;20128;-61
2022/04/01 11:47:10;;;;;;;6.82;4.12;;;1.80;99.90;;;;;;7247768;32;20121;-62
2022/04/01 11:51:17;;;;;;;6.30;3.78;;;1.70;99.90;;;;;;7245887;32;20140;-61
2022/04/01 11:55:27;;;;;;;4.62;3.67;;;1.60;99.90;;;;;;7247367;32;20223;-60
2022/04/01 11:59:32;;;;;;;6.62;3.78;;;1.60;99.90;;;;;;7246375;32;20105;-60
2022/04/01 12:03:34;;;;;;;4.78;3.75;;;1.70;99.90;;;;;;7247284;32;20183;-62
2022/04/01 12:11:58;;;;;;;5.35;4.05;;;1.60;99.90;;;;;;7247230;32;20101;-61
2022/04/01 12:16:00;;;;;;;7.05;4.00;;;1.70;99.90;;;;;;7242930;32;20289;-62
2022/04/01 12:20:13;;;;;;;7.18;4.03;;;1.60;99.90;;;;;;7238833;32;20559;-61
2022/04/01 12:24:35;;;;;;;7.82;4.15;;;1.60;99.90;;;;;;7228598;32;20136;-61
2022/04/01 12:28:40;;;;;;;6.90;4.12;;;1.70;99.90;;;;;;7241827;32;20104;-61
2022/04/01 12:32:56;;;;;;;6.07;4.22;;;1.80;99.90;;;;;;7242019;32;20552;-61
2022/04/01 12:37:01;;;;;;;6.22;4.15;;;1.70;99.90;;;;;;7237674;32;20119;-60
2022/04/01 12:41:05;;;;;;;7.03;4.28;;;1.80;99.90;;;;;;7242057;32;20283;-61
2022/04/01 12:45:07;;;;;;;7.32;4.75;;;1.80;99.90;;;;;;7236487;32;20109;-59
2022/04/01 12:49:15;;;;;;;7.10;4.25;;;1.70;99.90;;;;;;7237142;32;20797;-62
2022/04/01 12:53:17;;;;;;;6.53;4.68;;;1.50;99.90;;;;;;7235949;32;20611;-62
2022/04/01 12:57:20;;;;;;;6.18;4.62;;;1.70;99.90;;;;;;7238790;32;20112;-61
2022/04/01 13:01:29;;;;;;;6.68;5.00;;;1.60;99.90;;;;;;7243128;32;20126;-61
2022/04/01 13:05:34;;;;;;;6.12;5.03;;;1.50;99.90;;;;;;7242042;32;20241;-60
2022/04/01 13:09:46;;;;;;;9.23;5.40;;;1.50;99.90;;;;;;7243636;32;20605;-62
2022/04/01 13:13:52;;;;;;;10.45;6.25;;;1.70;99.90;;;;;;7238515;32;20330;-62
2022/04/01 13:17:56;;;;;;;7.47;4.85;;;1.80;99.90;;;;;;7237715;32;20824;-62
2022/04/01 13:22:02;;;;;;;7.18;4.78;;;1.60;99.90;;;;;;7240532;32;20123;-61
2022/04/01 13:26:05;;;;;;;8.25;4.90;;;1.60;99.90;;;;;;7236818;32;20196;-60
2022/04/01 13:30:08;;;;;;;8.23;4.70;;;1.60;99.90;;;;;;7238576;32;20108;-61
2022/04/01 13:34:11;;;;;;;8.27;5.03;;;1.70;99.90;;;;;;7240344;32;20105;-61
2022/04/01 13:38:13;;;;;;;7.90;4.68;;;1.90;99.90;;;;;;7239140;32;20123;-61
2022/04/01 13:42:16;;;;;;;6.75;4.47;;;1.70;99.90;;;;;;7242792;32;20124;-61
2022/04/01 13:46:19;;;;;;;7.72;4.10;;;1.80;99.90;;;;;;7238088;32;20240;-60
2022/04/01 13:50:21;;;;;;;5.55;3.65;;;1.80;99.90;;;;;;7236540;32;20101;-62
2022/04/01 13:54:23;;;;;;;5.53;3.92;;;1.60;99.90;;;;;;7234932;32;20116;-61
2022/04/01 13:58:26;;;;;;;6.68;4.45;;;1.60;99.90;;;;;;7235939;32;20142;-58
2022/04/01 14:02:28;;;;;;;6.05;3.90;;;1.70;99.90;;;;;;7231085;32;20682;-59
2022/04/01 14:06:34;;;;;;;5.87;3.85;;;1.80;99.90;;;;;;7235344;32;20109;-59
2022/04/01 14:10:35;;;;;;;7.05;4.05;;;1.70;99.90;;;;;;7232141;32;20250;-60
2022/04/01 14:14:37;;;;;;;6.30;3.92;;;1.80;99.90;;;;;;7232637;32;20167;-60
2022/04/01 14:18:39;;;;;;;5.90;3.60;;;1.90;99.90;;;;;;7234803;32;20139;-61
2022/04/01 14:22:42;;;;;;;5.53;4.12;;;1.80;99.90;;;;;;7238838;32;21451;-61
2022/04/01 14:26:43;;;;;;;7.32;4.90;;;1.90;99.90;;;;;;7235028;32;20104;-59
2022/04/01 14:30:45;;;;;;;5.97;4.60;;;1.50;99.90;;;;;;7236597;32;20217;-59
2022/04/01 14:34:47;;;;;;;5.97;4.40;;;1.70;99.90;;;;;;7241347;32;20591;-60
2022/04/01 14:38:53;;;;;;;9.23;5.12;;;1.70;99.90;;;;;;7236093;32;20093;-61
2022/04/01 14:42:55;;;;;;;6.62;4.70;;;1.70;99.90;;;;;;7236842;32;20303;-60
2022/04/01 14:46:58;;;;;;;6.00;4.97;;;1.70;99.90;;;;;;7228219;32;20211;-59
2022/04/01 14:51:02;;;;;;;7.47;6.15;;;1.70;99.90;;;;;;7237298;32;20100;-58
2022/04/01 14:55:04;;;;;;;8.85;7.28;;;1.60;99.90;;;;;;7240263;32;20125;-60
2022/04/01 14:59:06;;;;;;;9.48;7.30;;;1.70;99.90;;;;;;7237584;32;20113;-58
2022/04/01 15:03:08;;;;;;;9.55;7.75;;;1.70;99.90;;;;;;7239363;32;20101;-60
2022/04/01 15:07:11;;;;;;;11.30;8.82;;;1.60;99.90;;;;;;7238883;32;21261;-59
2022/04/01 15:11:13;;;;;;;9.75;8.25;;;1.50;99.90;;;;;;7241403;32;20239;-59
2022/04/01 15:15:16;;;;;;;10.57;7.43;;;1.30;99.90;;;;;;7242180;32;20251;-60
2022/04/01 15:19:18;;;;;;;11.50;8.15;;;1.30;99.90;;;;;;7237261;32;20127;-59
2022/04/01 15:23:25;;;;;;;11.18;8.82;;;1.20;99.90;;;;;;7240297;32;20775;-61
2022/04/01 15:27:27;;;;;;;16.27;13.20;;;1.30;99.90;;;;;;7239742;32;20104;-59
2022/04/01 15:31:30;;;;;;;18.75;15.45;;;1.30;99.90;;;;;;7241411;32;20359;-59
2022/04/01 15:35:33;;;;;;;23.60;18.70;;;1.30;99.90;;;;;;7237806;32;21082;-60
2022/04/01 15:39:37;;;;;;;25.15;20.50;;;1.30;99.90;;;;;;7238570;32;21057;-59
2022/04/01 15:43:38;;;;;;;25.48;19.17;;;1.20;99.90;;;;;;7236922;32;20204;-60
2022/04/01 15:47:42;;;;;;;27.33;20.02;;;1.20;99.90;;;;;;7237208;32;20104;-57
2022/04/01 15:51:45;;;;;;;29.95;22.92;;;1.10;99.90;;;;;;7239860;32;20473;-60
2022/04/01 15:55:47;;;;;;;29.58;23.17;;;1.00;99.90;;;;;;7236980;32;20108;-61
2022/04/01 15:59:49;;;;;;;30.52;23.90;;;1.00;99.90;;;;;;7237839;32;20121;-60
2022/04/01 16:03:57;;;;;;;31.37;24.50;;;1.00;99.90;;;;;;7236203;32;20253;-61
2022/04/01 16:07:59;;;;;;;24.75;20.20;;;1.00;99.90;;;;;;7230682;32;20223;-60
2022/04/01 16:12:04;;;;;;;28.52;22.25;;;1.00;99.90;;;;;;7232094;32;20191;-62
2022/04/01 16:16:05;;;;;;;26.23;21.48;;;1.10;99.90;;;;;;7245873;32;20215;-61
2022/04/01 16:20:09;;;;;;;27.77;21.35;;;1.20;99.90;;;;;;7243194;32;20276;-62
2022/04/01 16:24:11;;;;;;;34.42;25.85;;;1.20;99.90;;;;;;7249965;32;20206;-60
2022/04/01 16:28:13;;;;;;;33.80;26.75;;;1.20;99.90;;;;;;7239346;32;20211;-60
2022/04/01 16:32:15;;;;;;;31.90;25.37;;;1.20;99.90;;;;;;7243774;32;20203;-62
2022/04/01 16:36:17;;;;;;;31.42;24.30;;;1.20;99.90;;;;;;7241962;32;20168;-62
2022/04/01 16:40:19;;;;;;;32.47;25.70;;;1.20;99.90;;;;;;7241805;32;20131;-63
2022/04/01 16:44:21;;;;;;;31.05;23.62;;;1.30;99.90;;;;;;7244958;32;20104;-61
2022/04/01 16:48:22;;;;;;;32.67;23.92;;;1.20;99.90;;;;;;7245916;32;20097;-60
2022/04/01 16:52:24;;;;;;;31.33;23.45;;;1.10;99.90;;;;;;7244906;32;20101;-61
2022/04/01 16:56:26;;;;;;;29.77;22.90;;;1.10;99.90;;;;;;7244964;32;20239;-62
2022/04/01 17:00:28;;;;;;;26.15;20.42;;;1.10;99.90;;;;;;7248366;32;20567;-61
2022/04/01 17:04:34;;;;;;;28.60;20.58;;;1.10;99.90;;;;;;7247479;32;20113;-62
2022/04/01 17:13:14;;;;;;;28.62;21.33;;;1.00;99.90;;;;;;7236305;32;20096;-62
2022/04/01 17:17:16;;;;;;;23.20;18.35;;;1.10;99.90;;;;;;7248831;32;20196;-61
2022/04/01 17:21:19;;;;;;;23.95;17.05;;;1.20;99.90;;;;;;7245184;32;20100;-61
2022/04/01 17:25:21;;;;;;;20.77;16.00;;;1.10;99.90;;;;;;7243259;32;20218;-61
2022/04/01 17:29:22;;;;;;;19.15;14.52;;;1.10;99.90;;;;;;7242782;32;20108;-62
2022/04/01 17:33:26;;;;;;;17.37;14.00;;;1.00;99.90;;;;;;7233608;32;20213;-64
2022/04/01 17:37:27;;;;;;;19.25;14.63;;;1.00;99.90;;;;;;7226022;32;20139;-61
2022/04/01 17:41:30;;;;;;;16.33;12.95;;;1.00;99.90;;;;;;7239711;32;20203;-61
2022/04/01 17:45:32;;;;;;;18.23;13.52;;;1.00;99.90;;;;;;7242491;32;20536;-60
2022/04/01 17:49:34;;;;;;;17.40;13.98;;;1.00;99.90;;;;;;7239847;32;20228;-61
2022/04/01 17:53:37;;;;;;;17.42;12.45;;;1.00;99.90;;;;;;7241300;32;20222;-63
2022/04/01 17:57:42;;;;;;;16.98;13.70;;;1.10;99.90;;;;;;7243523;32;20594;-64
2022/04/01 18:01:45;;;;;;;14.87;12.48;;;1.00;99.90;;;;;;7241700;32;20532;-63
2022/04/01 18:05:50;;;;;;;16.08;13.70;;;1.00;99.90;;;;;;7242945;32;20743;-63
2022/04/01 18:10:00;;;;;;;17.12;14.60;;;0.90;99.90;;;;;;7237753;32;20202;-64
2022/04/01 18:14:02;;;;;;;22.23;16.33;;;1.00;99.90;;;;;;7235567;32;20109;-63
2022/04/01 18:18:04;;;;;;;24.85;17.02;;;1.00;99.90;;;;;;7242402;32;20128;-60
2022/04/01 18:22:07;;;;;;;19.58;15.77;;;0.90;99.90;;;;;;7238170;32;20246;-60
2022/04/01 18:26:17;;;;;;;21.58;16.42;;;0.90;99.90;;;;;;7241922;32;20124;-60
2022/04/01 18:30:22;;;;;;;19.65;14.15;;;0.90;99.90;;;;;;7237783;32;20124;-61
2022/04/01 18:34:27;;;;;;;14.23;11.85;;;0.90;99.90;;;;;;7246357;32;20101;-61
2022/04/01 18:38:31;;;;;;;19.75;14.05;;;0.80;99.90;;;;;;7247972;32;20104;-61
2022/04/01 18:42:34;;;;;;;15.25;13.15;;;0.80;99.90;;;;;;7247406;32;20199;-62
2022/04/01 18:46:37;;;;;;;16.92;13.13;;;0.90;99.90;;;;;;7248992;32;20093;-62
2022/04/01 18:50:42;;;;;;;18.08;13.82;;;0.90;99.90;;;;;;7248912;32;20124;-62
2022/04/01 18:54:43;;;;;;;19.90;15.40;;;0.90;99.90;;;;;;7246746;32;20320;-62
2022/04/01 18:58:46;;;;;;;19.52;15.90;;;0.80;99.90;;;;;;7245501;32;20481;-60
2022/04/01 19:02:53;;;;;;;20.30;15.85;;;0.80;99.90;;;;;;7243859;32;20135;-60
2022/04/01 19:07:08;;;;;;;22.02;16.58;;;0.80;99.90;;;;;;7248154;32;20128;-62
2022/04/01 19:11:32;;;;;;;19.35;15.23;;;0.90;99.90;;;;;;7243439;32;20295;-59
2022/04/01 19:15:38;;;;;;;21.33;15.90;;;0.80;99.90;;;;;;7246732;32;20164;-61
2022/04/01 19:19:45;;;;;;;16.33;14.40;;;0.80;99.90;;;;;;7248713;32;20132;-63
2022/04/01 19:23:49;;;;;;;16.17;13.87;;;0.90;99.90;;;;;;7246855;32;20259;-61
2022/04/01 19:27:51;;;;;;;21.08;17.17;;;0.90;99.90;;;;;;7242015;32;20108;-63
2022/04/01 19:31:57;;;;;;;18.75;15.35;;;0.80;99.90;;;;;;7251106;32;20213;-62
2022/04/01 19:35:59;;;;;;;;;;;0.90;99.90;;;;;;7242721;32;20105;-61
2022/04/01 19:40:05;;;;;;;22.98;16.83;;;0.90;99.90;;;;;;7240504;32;20377;-62
2022/04/01 19:44:07;;;;;;;27.20;19.12;;;0.90;99.90;;;;;;7247278;32;20897;-61
2022/04/01 19:48:09;;;;;;;28.08;21.60;;;0.90;99.90;;;;;;7246349;32;20104;-60
2022/04/01 19:52:11;;;;;;;24.92;20.17;;;0.70;99.90;;;;;;7245686;32;20109;-60
2022/04/01 19:56:12;;;;;;;23.87;19.40;;;0.80;99.90;;;;;;7247003;32;20127;-61
2022/04/01 20:00:14;;;;;;;24.67;18.83;;;0.90;99.90;;;;;;7229799;32;20650;-62
2022/04/01 20:04:16;;;;;;;26.73;19.12;;;0.80;99.90;;;;;;7242172;32;20452;-61
2022/04/01 20:08:23;;;;;;;25.12;19.40;;;0.70;99.90;;;;;;7243693;32;20093;-62
2022/04/01 20:12:25;;;;;;;26.42;20.30;;;0.80;99.90;;;;;;7248813;32;20311;-61
2022/04/01 20:16:27;;;;;;;23.95;19.00;;;0.80;99.90;;;;;;7247511;32;20769;-63
2022/04/01 20:20:29;;;;;;;25.42;19.37;;;0.90;99.90;;;;;;7240040;32;20101;-61
2022/04/01 20:24:31;;;;;;;24.20;19.30;;;0.90;99.90;;;;;;7239026;32;20097;-62
2022/04/01 20:28:32;;;;;;;29.10;21.70;;;0.80;99.90;;;;;;7237047;32;20192;-60
2022/04/01 20:32:34;;;;;;;30.65;21.73;;;0.90;99.90;;;;;;7242734;32;20131;-61
2022/04/01 20:36:36;;;;;;;24.73;21.00;;;0.70;99.90;;;;;;7242094;32;20100;-62
2022/04/01 20:40:37;;;;;;;27.55;20.48;;;0.80;99.90;;;;;;7239613;32;20119;-61
2022/04/01 20:44:39;;;;;;;27.45;19.80;;;0.90;99.90;;;;;;7243542;32;20167;-61
2022/04/01 20:48:41;;;;;;;25.45;19.73;;;0.90;99.90;;;;;;7246745;32;20258;-61
2022/04/01 20:52:43;;;;;;;26.55;20.08;;;0.90;99.90;;;;;;7243771;32;20179;-60
2022/04/01 20:56:44;;;;;;;22.92;18.02;;;0.90;99.90;;;;;;7243516;32;20101;-61
2022/04/01 21:00:46;;;;;;;23.98;18.12;;;0.80;99.90;;;;;;7230820;32;20127;-60
2022/04/01 21:04:48;;;;;;;22.73;16.37;;;0.80;99.90;;;;;;7242632;32;20101;-61
2022/04/01 21:08:49;;;;;;;24.17;16.02;;;0.90;99.90;;;;;;7241671;32;20112;-60
2022/04/01 21:12:53;;;;;;;22.92;16.92;;;0.90;99.90;;;;;;7243521;32;20100;-62
2022/04/01 21:16:54;;;;;;;22.87;17.50;;;0.80;99.90;;;;;;7243593;32;20097;-60
2022/04/01 21:20:56;;;;;;;25.77;18.10;;;0.80;99.90;;;;;;7244671;32;20197;-61
2022/04/01 21:25:04;;;;;;;24.08;17.05;;;0.80;99.90;;;;;;7241795;32;20183;-61
2022/04/01 21:29:06;;;;;;;23.30;16.90;;;0.80;99.90;;;;;;7244965;32;20804;-62
2022/04/01 21:33:14;;;;;;;21.80;16.95;;;0.80;99.90;;;;;;7245700;32;20121;-61
2022/04/01 21:37:24;;;;;;;24.90;17.00;;;0.80;99.90;;;;;;7246342;32;20214;-60